sensor_id;sensor_type;location;lat;lon;timestamp;P1;durP1;ratioP1;P2;durP2;ratioP2
26325;SDS011;14032;52.510;7.342;2024-01-30T00:01:43;21.50;;;14.25;;
26325;SDS011;14032;52.510;7.342;2024-01-30T00:04:08;20.50;;;14.45;;
26325;SDS011;14032;52.510;7.342;2024-01-30T00:06:34;22.98;;;13.90;;
26325;SDS011;14032;52.510;7.342;2024-01-30T00:08:59;22.40;;;13.93;;
26325;SDS011;14032;52.510;7.342;2024-01-30T00:11:25;23.48;;;14.35;;
26325;SDS011;14032;52.510;7.342;2024-01-30T00:13:51;23.90;;;15.02;;
26325;SDS011;14032;52.510;7.342;2024-01-30T00:16:20;24.48;;;14.65;;
26325;SDS011;14032;52.510;7.342;2024-01-30T00:18:47;25.15;;;15.43;;
26325;SDS011;14032;52.510;7.342;2024-01-30T00:21:13;19.20;;;13.80;;
26325;SDS011;14032;52.510;7.342;2024-01-30T00:23:39;21.98;;;15.10;;
26325;SDS011;14032;52.510;7.342;2024-01-30T00:26:04;23.50;;;14.40;;
26325;SDS011;14032;52.510;7.342;2024-01-30T00:28:31;24.33;;;16.13;;
26325;SDS011;14032;52.510;7.342;2024-01-30T00:30:56;19.75;;;14.55;;
26325;SDS011;14032;52.510;7.342;2024-01-30T00:33:22;21.95;;;14.57;;
26325;SDS011;14032;52.510;7.342;2024-01-30T00:35:47;22.83;;;14.57;;
26325;SDS011;14032;52.510;7.342;2024-01-30T00:38:13;21.88;;;14.95;;
26325;SDS011;14032;52.510;7.342;2024-01-30T00:40:38;25.20;;;15.15;;
26325;SDS011;14032;52.510;7.342;2024-01-30T00:43:04;27.95;;;15.07;;
26325;SDS011;14032;52.510;7.342;2024-01-30T00:45:29;22.02;;;14.48;;
26325;SDS011;14032;52.510;7.342;2024-01-30T00:47:55;23.60;;;13.75;;
26325;SDS011;14032;52.510;7.342;2024-01-30T00:50:20;21.60;;;14.23;;
26325;SDS011;14032;52.510;7.342;2024-01-30T00:52:46;23.95;;;15.13;;
26325;SDS011;14032;52.510;7.342;2024-01-30T00:55:12;26.33;;;14.40;;
26325;SDS011;14032;52.510;7.342;2024-01-30T00:57:39;20.42;;;13.15;;
26325;SDS011;14032;52.510;7.342;2024-01-30T01:00:05;22.65;;;13.77;;
26325;SDS011;14032;52.510;7.342;2024-01-30T01:02:32;21.48;;;14.38;;
26325;SDS011;14032;52.510;7.342;2024-01-30T01:04:59;25.08;;;14.82;;
26325;SDS011;14032;52.510;7.342;2024-01-30T01:07:24;20.50;;;13.95;;
26325;SDS011;14032;52.510;7.342;2024-01-30T01:09:50;22.48;;;15.07;;
26325;SDS011;14032;52.510;7.342;2024-01-30T01:12:16;22.38;;;14.57;;
26325;SDS011;14032;52.510;7.342;2024-01-30T01:14:41;23.30;;;14.98;;
26325;SDS011;14032;52.510;7.342;2024-01-30T01:17:07;24.88;;;14.52;;
26325;SDS011;14032;52.510;7.342;2024-01-30T01:19:32;25.58;;;16.00;;
26325;SDS011;14032;52.510;7.342;2024-01-30T01:21:58;23.55;;;15.73;;
26325;SDS011;14032;52.510;7.342;2024-01-30T01:24:23;22.02;;;14.48;;
26325;SDS011;14032;52.510;7.342;2024-01-30T01:26:49;20.98;;;13.60;;
26325;SDS011;14032;52.510;7.342;2024-01-30T01:29:15;22.75;;;14.75;;
26325;SDS011;14032;52.510;7.342;2024-01-30T01:31:41;24.27;;;15.27;;
26325;SDS011;14032;52.510;7.342;2024-01-30T01:34:12;20.58;;;14.07;;
26325;SDS011;14032;52.510;7.342;2024-01-30T01:36:38;24.67;;;14.77;;
26325;SDS011;14032;52.510;7.342;2024-01-30T01:39:04;22.42;;;14.57;;
26325;SDS011;14032;52.510;7.342;2024-01-30T01:41:30;21.90;;;13.90;;
26325;SDS011;14032;52.510;7.342;2024-01-30T01:43:59;21.40;;;14.10;;
26325;SDS011;14032;52.510;7.342;2024-01-30T01:46:30;21.05;;;14.77;;
26325;SDS011;14032;52.510;7.342;2024-01-30T01:48:58;26.27;;;15.15;;
26325;SDS011;14032;52.510;7.342;2024-01-30T01:51:24;21.92;;;15.07;;
26325;SDS011;14032;52.510;7.342;2024-01-30T01:53:56;23.45;;;14.45;;
26325;SDS011;14032;52.510;7.342;2024-01-30T01:56:23;23.48;;;14.43;;
26325;SDS011;14032;52.510;7.342;2024-01-30T01:58:50;18.77;;;13.43;;
26325;SDS011;14032;52.510;7.342;2024-01-30T02:01:19;26.63;;;14.80;;
26325;SDS011;14032;52.510;7.342;2024-01-30T02:03:48;23.48;;;15.05;;
26325;SDS011;14032;52.510;7.342;2024-01-30T02:06:15;20.20;;;14.13;;
26325;SDS011;14032;52.510;7.342;2024-01-30T02:08:41;21.48;;;14.00;;
26325;SDS011;14032;52.510;7.342;2024-01-30T02:11:07;20.40;;;13.90;;
26325;SDS011;14032;52.510;7.342;2024-01-30T02:13:33;19.98;;;13.43;;
26325;SDS011;14032;52.510;7.342;2024-01-30T02:15:59;21.10;;;13.50;;
26325;SDS011;14032;52.510;7.342;2024-01-30T02:18:26;19.00;;;14.43;;
26325;SDS011;14032;52.510;7.342;2024-01-30T02:20:52;24.27;;;13.93;;
26325;SDS011;14032;52.510;7.342;2024-01-30T02:23:19;20.50;;;13.82;;
26325;SDS011;14032;52.510;7.342;2024-01-30T02:25:45;23.33;;;15.20;;
26325;SDS011;14032;52.510;7.342;2024-01-30T02:28:11;19.85;;;13.77;;
26325;SDS011;14032;52.510;7.342;2024-01-30T02:30:37;23.15;;;13.70;;
26325;SDS011;14032;52.510;7.342;2024-01-30T02:33:09;21.00;;;13.93;;
26325;SDS011;14032;52.510;7.342;2024-01-30T02:35:35;20.65;;;14.98;;
26325;SDS011;14032;52.510;7.342;2024-01-30T02:38:01;30.33;;;15.32;;
26325;SDS011;14032;52.510;7.342;2024-01-30T02:40:26;23.95;;;14.15;;
26325;SDS011;14032;52.510;7.342;2024-01-30T02:42:52;23.35;;;14.68;;
26325;SDS011;14032;52.510;7.342;2024-01-30T02:45:18;22.45;;;14.88;;
26325;SDS011;14032;52.510;7.342;2024-01-30T02:47:43;23.50;;;14.40;;
26325;SDS011;14032;52.510;7.342;2024-01-30T02:50:09;21.38;;;14.05;;
26325;SDS011;14032;52.510;7.342;2024-01-30T02:52:35;23.77;;;14.93;;
26325;SDS011;14032;52.510;7.342;2024-01-30T02:55:00;24.42;;;14.30;;
26325;SDS011;14032;52.510;7.342;2024-01-30T02:57:27;21.52;;;14.02;;
26325;SDS011;14032;52.510;7.342;2024-01-30T02:59:53;20.15;;;14.15;;
26325;SDS011;14032;52.510;7.342;2024-01-30T03:02:19;24.05;;;15.57;;
26325;SDS011;14032;52.510;7.342;2024-01-30T03:04:45;22.30;;;14.30;;
26325;SDS011;14032;52.510;7.342;2024-01-30T03:07:11;22.55;;;14.18;;
26325;SDS011;14032;52.510;7.342;2024-01-30T03:09:36;24.50;;;14.88;;
26325;SDS011;14032;52.510;7.342;2024-01-30T03:12:02;21.98;;;14.25;;
26325;SDS011;14032;52.510;7.342;2024-01-30T03:14:30;23.85;;;14.98;;
26325;SDS011;14032;52.510;7.342;2024-01-30T03:16:56;23.85;;;14.20;;
26325;SDS011;14032;52.510;7.342;2024-01-30T03:19:22;21.40;;;14.07;;
26325;SDS011;14032;52.510;7.342;2024-01-30T03:21:48;22.35;;;14.27;;
26325;SDS011;14032;52.510;7.342;2024-01-30T03:24:13;18.80;;;13.95;;
26325;SDS011;14032;52.510;7.342;2024-01-30T03:26:39;24.30;;;14.77;;
26325;SDS011;14032;52.510;7.342;2024-01-30T03:29:04;21.27;;;14.73;;
26325;SDS011;14032;52.510;7.342;2024-01-30T03:31:30;23.67;;;15.13;;
26325;SDS011;14032;52.510;7.342;2024-01-30T03:33:56;24.40;;;13.90;;
26325;SDS011;14032;52.510;7.342;2024-01-30T03:36:21;24.05;;;15.38;;
26325;SDS011;14032;52.510;7.342;2024-01-30T03:38:47;21.75;;;14.32;;
26325;SDS011;14032;52.510;7.342;2024-01-30T03:41:12;19.20;;;14.40;;
26325;SDS011;14032;52.510;7.342;2024-01-30T03:43:38;23.08;;;14.88;;
26325;SDS011;14032;52.510;7.342;2024-01-30T03:46:03;25.55;;;14.70;;
26325;SDS011;14032;52.510;7.342;2024-01-30T03:48:29;20.25;;;14.43;;
26325;SDS011;14032;52.510;7.342;2024-01-30T03:50:55;19.70;;;14.40;;
26325;SDS011;14032;52.510;7.342;2024-01-30T03:53:20;23.60;;;14.60;;
26325;SDS011;14032;52.510;7.342;2024-01-30T03:55:46;25.17;;;14.57;;
26325;SDS011;14032;52.510;7.342;2024-01-30T03:58:12;22.25;;;13.93;;
26325;SDS011;14032;52.510;7.342;2024-01-30T04:00:37;22.10;;;15.50;;
26325;SDS011;14032;52.510;7.342;2024-01-30T04:03:03;23.45;;;14.75;;
26325;SDS011;14032;52.510;7.342;2024-01-30T04:05:29;21.45;;;14.52;;
26325;SDS011;14032;52.510;7.342;2024-01-30T04:07:54;23.52;;;14.65;;
26325;SDS011;14032;52.510;7.342;2024-01-30T04:10:20;25.30;;;16.27;;
26325;SDS011;14032;52.510;7.342;2024-01-30T04:12:46;23.60;;;14.98;;
26325;SDS011;14032;52.510;7.342;2024-01-30T04:15:11;22.35;;;14.25;;
26325;SDS011;14032;52.510;7.342;2024-01-30T04:17:38;21.73;;;14.50;;
26325;SDS011;14032;52.510;7.342;2024-01-30T04:20:04;21.42;;;14.18;;
26325;SDS011;14032;52.510;7.342;2024-01-30T04:22:30;20.23;;;13.70;;
26325;SDS011;14032;52.510;7.342;2024-01-30T04:24:56;21.48;;;14.00;;
26325;SDS011;14032;52.510;7.342;2024-01-30T04:27:22;23.08;;;15.20;;
26325;SDS011;14032;52.510;7.342;2024-01-30T04:29:47;22.52;;;14.60;;
26325;SDS011;14032;52.510;7.342;2024-01-30T04:32:13;20.35;;;14.25;;
26325;SDS011;14032;52.510;7.342;2024-01-30T04:34:38;20.33;;;14.02;;
26325;SDS011;14032;52.510;7.342;2024-01-30T04:37:04;22.85;;;14.57;;
26325;SDS011;14032;52.510;7.342;2024-01-30T04:39:29;22.88;;;14.90;;
26325;SDS011;14032;52.510;7.342;2024-01-30T04:41:55;20.70;;;14.63;;
26325;SDS011;14032;52.510;7.342;2024-01-30T04:44:20;23.73;;;15.30;;
26325;SDS011;14032;52.510;7.342;2024-01-30T04:46:46;24.00;;;14.45;;
26325;SDS011;14032;52.510;7.342;2024-01-30T04:49:12;22.48;;;15.10;;
26325;SDS011;14032;52.510;7.342;2024-01-30T04:51:37;26.38;;;15.15;;
26325;SDS011;14032;52.510;7.342;2024-01-30T04:54:03;22.00;;;14.27;;
26325;SDS011;14032;52.510;7.342;2024-01-30T04:56:28;24.88;;;15.50;;
26325;SDS011;14032;52.510;7.342;2024-01-30T04:58:54;22.98;;;14.73;;
26325;SDS011;14032;52.510;7.342;2024-01-30T05:01:20;24.08;;;15.80;;
26325;SDS011;14032;52.510;7.342;2024-01-30T05:03:45;21.17;;;14.05;;
26325;SDS011;14032;52.510;7.342;2024-01-30T05:06:11;23.40;;;14.85;;
26325;SDS011;14032;52.510;7.342;2024-01-30T05:08:36;21.17;;;14.43;;
26325;SDS011;14032;52.510;7.342;2024-01-30T05:11:02;23.35;;;14.55;;
26325;SDS011;14032;52.510;7.342;2024-01-30T05:13:31;21.25;;;13.93;;
26325;SDS011;14032;52.510;7.342;2024-01-30T05:15:56;23.48;;;15.23;;
26325;SDS011;14032;52.510;7.342;2024-01-30T05:18:22;24.00;;;14.60;;
26325;SDS011;14032;52.510;7.342;2024-01-30T05:20:49;21.38;;;14.93;;
26325;SDS011;14032;52.510;7.342;2024-01-30T05:23:15;22.38;;;15.18;;
26325;SDS011;14032;52.510;7.342;2024-01-30T05:25:40;20.35;;;14.68;;
26325;SDS011;14032;52.510;7.342;2024-01-30T05:28:06;23.88;;;15.40;;
26325;SDS011;14032;52.510;7.342;2024-01-30T05:30:32;24.20;;;15.13;;
26325;SDS011;14032;52.510;7.342;2024-01-30T05:32:57;26.40;;;15.82;;
26325;SDS011;14032;52.510;7.342;2024-01-30T05:35:23;24.02;;;15.75;;
26325;SDS011;14032;52.510;7.342;2024-01-30T05:37:48;26.08;;;16.15;;
26325;SDS011;14032;52.510;7.342;2024-01-30T05:40:15;23.17;;;15.88;;
26325;SDS011;14032;52.510;7.342;2024-01-30T05:42:41;29.15;;;15.65;;
26325;SDS011;14032;52.510;7.342;2024-01-30T05:45:06;23.90;;;15.60;;
26325;SDS011;14032;52.510;7.342;2024-01-30T05:47:33;26.85;;;16.67;;
26325;SDS011;14032;52.510;7.342;2024-01-30T05:49:59;21.13;;;14.77;;
26325;SDS011;14032;52.510;7.342;2024-01-30T05:52:24;21.75;;;14.65;;
26325;SDS011;14032;52.510;7.342;2024-01-30T05:54:50;24.02;;;16.60;;
26325;SDS011;14032;52.510;7.342;2024-01-30T05:57:16;24.48;;;14.20;;
26325;SDS011;14032;52.510;7.342;2024-01-30T05:59:41;26.58;;;15.32;;
26325;SDS011;14032;52.510;7.342;2024-01-30T06:02:08;26.27;;;15.52;;
26325;SDS011;14032;52.510;7.342;2024-01-30T06:04:35;22.88;;;14.98;;
26325;SDS011;14032;52.510;7.342;2024-01-30T06:07:01;22.60;;;15.43;;
26325;SDS011;14032;52.510;7.342;2024-01-30T06:09:27;23.05;;;15.13;;
26325;SDS011;14032;52.510;7.342;2024-01-30T06:11:53;23.23;;;15.70;;
26325;SDS011;14032;52.510;7.342;2024-01-30T06:14:19;24.00;;;14.73;;
26325;SDS011;14032;52.510;7.342;2024-01-30T06:16:44;23.05;;;15.20;;
26325;SDS011;14032;52.510;7.342;2024-01-30T06:19:10;22.48;;;14.95;;
26325;SDS011;14032;52.510;7.342;2024-01-30T06:21:35;26.30;;;15.20;;
26325;SDS011;14032;52.510;7.342;2024-01-30T06:24:02;23.65;;;14.77;;
26325;SDS011;14032;52.510;7.342;2024-01-30T06:26:27;25.42;;;15.15;;
26325;SDS011;14032;52.510;7.342;2024-01-30T06:28:53;25.20;;;15.45;;
26325;SDS011;14032;52.510;7.342;2024-01-30T06:31:18;23.50;;;14.95;;
26325;SDS011;14032;52.510;7.342;2024-01-30T06:33:46;24.15;;;15.40;;
26325;SDS011;14032;52.510;7.342;2024-01-30T06:36:12;25.67;;;15.35;;
26325;SDS011;14032;52.510;7.342;2024-01-30T06:38:37;24.83;;;15.82;;
26325;SDS011;14032;52.510;7.342;2024-01-30T06:41:04;26.00;;;15.43;;
26325;SDS011;14032;52.510;7.342;2024-01-30T06:43:30;21.73;;;14.20;;
26325;SDS011;14032;52.510;7.342;2024-01-30T06:45:55;21.08;;;14.48;;
26325;SDS011;14032;52.510;7.342;2024-01-30T06:48:21;23.00;;;14.90;;
26325;SDS011;14032;52.510;7.342;2024-01-30T06:50:46;24.75;;;15.52;;
26325;SDS011;14032;52.510;7.342;2024-01-30T06:53:13;23.42;;;15.20;;
26325;SDS011;14032;52.510;7.342;2024-01-30T06:55:38;24.35;;;15.13;;
26325;SDS011;14032;52.510;7.342;2024-01-30T06:58:04;21.77;;;14.15;;
26325;SDS011;14032;52.510;7.342;2024-01-30T07:00:29;21.45;;;14.85;;
26325;SDS011;14032;52.510;7.342;2024-01-30T07:02:58;20.77;;;13.98;;
26325;SDS011;14032;52.510;7.342;2024-01-30T07:05:27;21.55;;;14.02;;
26325;SDS011;14032;52.510;7.342;2024-01-30T07:07:52;22.13;;;14.63;;
26325;SDS011;14032;52.510;7.342;2024-01-30T07:10:18;21.77;;;13.90;;
26325;SDS011;14032;52.510;7.342;2024-01-30T07:12:44;24.00;;;14.98;;
26325;SDS011;14032;52.510;7.342;2024-01-30T07:15:09;24.75;;;14.75;;
26325;SDS011;14032;52.510;7.342;2024-01-30T07:17:35;22.05;;;14.20;;
26325;SDS011;14032;52.510;7.342;2024-01-30T07:20:01;20.83;;;14.43;;
26325;SDS011;14032;52.510;7.342;2024-01-30T07:22:30;24.35;;;14.57;;
26325;SDS011;14032;52.510;7.342;2024-01-30T07:24:56;23.35;;;14.02;;
26325;SDS011;14032;52.510;7.342;2024-01-30T07:27:21;24.92;;;14.23;;
26325;SDS011;14032;52.510;7.342;2024-01-30T07:29:47;27.20;;;14.65;;
26325;SDS011;14032;52.510;7.342;2024-01-30T07:32:13;22.17;;;14.95;;
26325;SDS011;14032;52.510;7.342;2024-01-30T07:34:45;21.08;;;14.25;;
26325;SDS011;14032;52.510;7.342;2024-01-30T07:37:14;23.67;;;14.32;;
26325;SDS011;14032;52.510;7.342;2024-01-30T07:39:41;21.75;;;14.30;;
26325;SDS011;14032;52.510;7.342;2024-01-30T07:42:07;23.90;;;14.60;;
26325;SDS011;14032;52.510;7.342;2024-01-30T07:44:33;21.90;;;13.20;;
26325;SDS011;14032;52.510;7.342;2024-01-30T07:46:59;20.17;;;13.15;;
26325;SDS011;14032;52.510;7.342;2024-01-30T07:49:24;24.45;;;13.70;;
26325;SDS011;14032;52.510;7.342;2024-01-30T07:51:50;28.75;;;15.38;;
26325;SDS011;14032;52.510;7.342;2024-01-30T07:54:16;20.85;;;13.60;;
26325;SDS011;14032;52.510;7.342;2024-01-30T07:56:42;19.30;;;13.18;;
26325;SDS011;14032;52.510;7.342;2024-01-30T07:59:11;21.55;;;13.27;;
26325;SDS011;14032;52.510;7.342;2024-01-30T08:01:37;21.65;;;14.50;;
26325;SDS011;14032;52.510;7.342;2024-01-30T08:04:03;23.67;;;13.75;;
26325;SDS011;14032;52.510;7.342;2024-01-30T08:06:29;19.48;;;12.80;;
26325;SDS011;14032;52.510;7.342;2024-01-30T08:08:54;20.42;;;12.95;;
26325;SDS011;14032;52.510;7.342;2024-01-30T08:11:20;20.05;;;13.73;;
26325;SDS011;14032;52.510;7.342;2024-01-30T08:13:54;22.98;;;13.75;;
26325;SDS011;14032;52.510;7.342;2024-01-30T08:16:20;26.02;;;13.18;;
26325;SDS011;14032;52.510;7.342;2024-01-30T08:18:45;19.08;;;12.60;;
26325;SDS011;14032;52.510;7.342;2024-01-30T08:21:11;20.60;;;12.50;;
26325;SDS011;14032;52.510;7.342;2024-01-30T08:23:38;21.02;;;12.98;;
26325;SDS011;14032;52.510;7.342;2024-01-30T08:26:04;18.65;;;13.13;;
26325;SDS011;14032;52.510;7.342;2024-01-30T08:28:30;20.58;;;12.65;;
26325;SDS011;14032;52.510;7.342;2024-01-30T08:30:56;24.92;;;12.52;;
26325;SDS011;14032;52.510;7.342;2024-01-30T08:33:22;20.65;;;12.80;;
26325;SDS011;14032;52.510;7.342;2024-01-30T08:35:47;19.73;;;12.18;;
26325;SDS011;14032;52.510;7.342;2024-01-30T08:38:13;22.23;;;12.85;;
26325;SDS011;14032;52.510;7.342;2024-01-30T08:40:39;19.33;;;12.55;;
26325;SDS011;14032;52.510;7.342;2024-01-30T08:43:04;22.98;;;13.18;;
26325;SDS011;14032;52.510;7.342;2024-01-30T08:45:30;19.35;;;12.65;;
26325;SDS011;14032;52.510;7.342;2024-01-30T08:47:56;18.15;;;12.43;;
26325;SDS011;14032;52.510;7.342;2024-01-30T08:50:21;22.15;;;12.13;;
26325;SDS011;14032;52.510;7.342;2024-01-30T08:52:47;20.35;;;11.45;;
26325;SDS011;14032;52.510;7.342;2024-01-30T08:55:13;21.08;;;12.30;;
26325;SDS011;14032;52.510;7.342;2024-01-30T08:57:38;17.02;;;10.90;;
26325;SDS011;14032;52.510;7.342;2024-01-30T09:00:04;19.17;;;11.98;;
26325;SDS011;14032;52.510;7.342;2024-01-30T09:02:31;16.95;;;11.20;;
26325;SDS011;14032;52.510;7.342;2024-01-30T09:04:59;19.17;;;12.32;;
26325;SDS011;14032;52.510;7.342;2024-01-30T09:07:24;19.88;;;11.73;;
26325;SDS011;14032;52.510;7.342;2024-01-30T09:09:50;21.42;;;13.18;;
26325;SDS011;14032;52.510;7.342;2024-01-30T09:12:15;16.38;;;10.45;;
26325;SDS011;14032;52.510;7.342;2024-01-30T09:14:41;24.13;;;12.40;;
26325;SDS011;14032;52.510;7.342;2024-01-30T09:17:07;20.58;;;11.40;;
26325;SDS011;14032;52.510;7.342;2024-01-30T09:19:33;36.53;;;21.08;;
26325;SDS011;14032;52.510;7.342;2024-01-30T09:21:58;19.38;;;11.30;;
26325;SDS011;14032;52.510;7.342;2024-01-30T09:24:25;17.63;;;10.80;;
26325;SDS011;14032;52.510;7.342;2024-01-30T09:26:51;20.17;;;11.65;;
26325;SDS011;14032;52.510;7.342;2024-01-30T09:29:17;20.20;;;10.68;;
26325;SDS011;14032;52.510;7.342;2024-01-30T09:31:43;18.77;;;10.95;;
26325;SDS011;14032;52.510;7.342;2024-01-30T09:34:10;19.50;;;11.45;;
26325;SDS011;14032;52.510;7.342;2024-01-30T09:36:35;18.77;;;10.60;;
26325;SDS011;14032;52.510;7.342;2024-01-30T09:39:01;20.42;;;10.55;;
26325;SDS011;14032;52.510;7.342;2024-01-30T09:41:27;17.08;;;10.30;;
26325;SDS011;14032;52.510;7.342;2024-01-30T09:43:54;15.57;;;10.05;;
26325;SDS011;14032;52.510;7.342;2024-01-30T09:46:22;15.70;;;9.88;;
26325;SDS011;14032;52.510;7.342;2024-01-30T09:48:53;15.38;;;9.27;;
26325;SDS011;14032;52.510;7.342;2024-01-30T09:51:20;17.92;;;9.63;;
26325;SDS011;14032;52.510;7.342;2024-01-30T09:53:47;17.00;;;9.63;;
26325;SDS011;14032;52.510;7.342;2024-01-30T09:56:13;16.77;;;9.23;;
26325;SDS011;14032;52.510;7.342;2024-01-30T09:58:39;15.55;;;8.68;;
26325;SDS011;14032;52.510;7.342;2024-01-30T10:01:05;14.35;;;8.65;;
26325;SDS011;14032;52.510;7.342;2024-01-30T10:03:31;15.27;;;8.98;;
26325;SDS011;14032;52.510;7.342;2024-01-30T10:05:56;14.25;;;8.60;;
26325;SDS011;14032;52.510;7.342;2024-01-30T10:08:23;19.38;;;9.95;;
26325;SDS011;14032;52.510;7.342;2024-01-30T10:10:49;17.63;;;9.02;;
26325;SDS011;14032;52.510;7.342;2024-01-30T10:13:15;16.42;;;8.68;;
26325;SDS011;14032;52.510;7.342;2024-01-30T10:15:41;15.07;;;8.68;;
26325;SDS011;14032;52.510;7.342;2024-01-30T10:18:10;14.77;;;8.77;;
26325;SDS011;14032;52.510;7.342;2024-01-30T10:20:36;18.65;;;9.45;;
26325;SDS011;14032;52.510;7.342;2024-01-30T10:23:02;12.65;;;8.18;;
26325;SDS011;14032;52.510;7.342;2024-01-30T10:25:29;13.60;;;8.35;;
26325;SDS011;14032;52.510;7.342;2024-01-30T10:27:56;13.80;;;8.30;;
26325;SDS011;14032;52.510;7.342;2024-01-30T10:30:23;12.70;;;8.05;;
26325;SDS011;14032;52.510;7.342;2024-01-30T10:32:55;15.38;;;8.25;;
26325;SDS011;14032;52.510;7.342;2024-01-30T10:35:23;19.45;;;8.85;;
26325;SDS011;14032;52.510;7.342;2024-01-30T10:37:49;14.15;;;8.52;;
26325;SDS011;14032;52.510;7.342;2024-01-30T10:40:15;14.20;;;7.80;;
26325;SDS011;14032;52.510;7.342;2024-01-30T10:42:44;14.10;;;8.25;;
26325;SDS011;14032;52.510;7.342;2024-01-30T10:47:42;15.82;;;9.05;;
26325;SDS011;14032;52.510;7.342;2024-01-30T10:50:13;17.27;;;8.55;;
26325;SDS011;14032;52.510;7.342;2024-01-30T10:52:39;13.38;;;8.55;;
26325;SDS011;14032;52.510;7.342;2024-01-30T10:55:07;16.15;;;8.25;;
26325;SDS011;14032;52.510;7.342;2024-01-30T10:57:36;17.95;;;8.25;;
26325;SDS011;14032;52.510;7.342;2024-01-30T11:00:03;16.13;;;8.43;;
26325;SDS011;14032;52.510;7.342;2024-01-30T11:02:35;18.70;;;8.43;;
26325;SDS011;14032;52.510;7.342;2024-01-30T11:05:05;20.98;;;9.13;;
26325;SDS011;14032;52.510;7.342;2024-01-30T11:07:31;16.73;;;8.10;;
26325;SDS011;14032;52.510;7.342;2024-01-30T11:12:26;16.38;;;9.40;;
26325;SDS011;14032;52.510;7.342;2024-01-30T11:15:06;17.77;;;9.23;;
26325;SDS011;14032;52.510;7.342;2024-01-30T11:17:43;18.58;;;9.32;;
26325;SDS011;14032;52.510;7.342;2024-01-30T11:20:22;17.30;;;8.90;;
26325;SDS011;14032;52.510;7.342;2024-01-30T11:22:52;14.45;;;9.07;;
26325;SDS011;14032;52.510;7.342;2024-01-30T11:25:21;17.45;;;8.48;;
26325;SDS011;14032;52.510;7.342;2024-01-30T11:27:49;14.95;;;8.88;;
26325;SDS011;14032;52.510;7.342;2024-01-30T11:30:22;22.17;;;9.05;;
26325;SDS011;14032;52.510;7.342;2024-01-30T11:32:59;18.25;;;8.82;;
26325;SDS011;14032;52.510;7.342;2024-01-30T11:35:25;15.63;;;8.50;;
26325;SDS011;14032;52.510;7.342;2024-01-30T11:37:51;17.98;;;8.07;;
26325;SDS011;14032;52.510;7.342;2024-01-30T11:40:17;14.25;;;7.95;;
26325;SDS011;14032;52.510;7.342;2024-01-30T11:42:44;16.05;;;8.52;;
26325;SDS011;14032;52.510;7.342;2024-01-30T11:45:10;17.60;;;8.35;;
26325;SDS011;14032;52.510;7.342;2024-01-30T11:47:36;14.60;;;8.82;;
26325;SDS011;14032;52.510;7.342;2024-01-30T11:50:05;15.68;;;8.80;;
26325;SDS011;14032;52.510;7.342;2024-01-30T11:52:32;14.48;;;8.55;;
26325;SDS011;14032;52.510;7.342;2024-01-30T11:54:59;20.67;;;8.68;;
26325;SDS011;14032;52.510;7.342;2024-01-30T11:57:28;15.57;;;8.98;;
26325;SDS011;14032;52.510;7.342;2024-01-30T11:59:53;19.13;;;9.80;;
26325;SDS011;14032;52.510;7.342;2024-01-30T12:02:19;16.23;;;8.65;;
26325;SDS011;14032;52.510;7.342;2024-01-30T12:04:44;18.05;;;8.55;;
26325;SDS011;14032;52.510;7.342;2024-01-30T12:07:10;14.85;;;9.18;;
26325;SDS011;14032;52.510;7.342;2024-01-30T12:09:36;17.15;;;9.00;;
26325;SDS011;14032;52.510;7.342;2024-01-30T12:12:02;13.27;;;8.73;;
26325;SDS011;14032;52.510;7.342;2024-01-30T12:14:28;13.55;;;8.23;;
26325;SDS011;14032;52.510;7.342;2024-01-30T12:16:54;18.15;;;8.18;;
26325;SDS011;14032;52.510;7.342;2024-01-30T12:19:23;14.75;;;8.60;;
26325;SDS011;14032;52.510;7.342;2024-01-30T12:21:58;13.77;;;7.90;;
26325;SDS011;14032;52.510;7.342;2024-01-30T12:24:27;17.13;;;8.47;;
26325;SDS011;14032;52.510;7.342;2024-01-30T12:26:58;18.30;;;9.00;;
26325;SDS011;14032;52.510;7.342;2024-01-30T12:29:24;20.25;;;8.65;;
26325;SDS011;14032;52.510;7.342;2024-01-30T12:31:52;16.95;;;8.80;;
26325;SDS011;14032;52.510;7.342;2024-01-30T12:34:19;14.60;;;8.27;;
26325;SDS011;14032;52.510;7.342;2024-01-30T12:36:46;12.68;;;8.20;;
26325;SDS011;14032;52.510;7.342;2024-01-30T12:39:14;13.77;;;7.72;;
26325;SDS011;14032;52.510;7.342;2024-01-30T12:41:40;18.58;;;7.60;;
26325;SDS011;14032;52.510;7.342;2024-01-30T12:44:05;11.73;;;6.95;;
26325;SDS011;14032;52.510;7.342;2024-01-30T12:46:32;13.35;;;7.72;;
26325;SDS011;14032;52.510;7.342;2024-01-30T12:48:59;13.27;;;6.63;;
26325;SDS011;14032;52.510;7.342;2024-01-30T12:51:25;15.02;;;7.22;;
26325;SDS011;14032;52.510;7.342;2024-01-30T12:54:06;11.27;;;7.47;;
26325;SDS011;14032;52.510;7.342;2024-01-30T12:56:32;13.90;;;8.07;;
26325;SDS011;14032;52.510;7.342;2024-01-30T12:58:57;15.07;;;7.68;;
26325;SDS011;14032;52.510;7.342;2024-01-30T13:01:23;13.40;;;7.60;;
26325;SDS011;14032;52.510;7.342;2024-01-30T13:03:49;12.50;;;7.50;;
26325;SDS011;14032;52.510;7.342;2024-01-30T13:06:14;17.80;;;8.43;;
26325;SDS011;14032;52.510;7.342;2024-01-30T13:08:40;15.55;;;7.50;;
26325;SDS011;14032;52.510;7.342;2024-01-30T13:11:11;16.58;;;7.82;;
26325;SDS011;14032;52.510;7.342;2024-01-30T13:13:37;12.15;;;7.80;;
26325;SDS011;14032;52.510;7.342;2024-01-30T13:16:03;14.82;;;8.10;;
26325;SDS011;14032;52.510;7.342;2024-01-30T13:18:29;12.40;;;7.80;;
26325;SDS011;14032;52.510;7.342;2024-01-30T13:20:55;12.35;;;7.70;;
26325;SDS011;14032;52.510;7.342;2024-01-30T13:23:20;18.20;;;8.10;;
26325;SDS011;14032;52.510;7.342;2024-01-30T13:25:46;13.88;;;7.97;;
26325;SDS011;14032;52.510;7.342;2024-01-30T13:28:11;13.63;;;8.43;;
26325;SDS011;14032;52.510;7.342;2024-01-30T13:30:38;14.50;;;8.38;;
26325;SDS011;14032;52.510;7.342;2024-01-30T13:33:04;13.68;;;7.13;;
26325;SDS011;14032;52.510;7.342;2024-01-30T13:35:29;13.40;;;7.57;;
26325;SDS011;14032;52.510;7.342;2024-01-30T13:37:55;13.85;;;7.78;;
26325;SDS011;14032;52.510;7.342;2024-01-30T13:40:21;12.85;;;8.45;;
26325;SDS011;14032;52.510;7.342;2024-01-30T13:42:47;14.20;;;8.00;;
26325;SDS011;14032;52.510;7.342;2024-01-30T13:45:13;14.50;;;8.90;;
26325;SDS011;14032;52.510;7.342;2024-01-30T13:47:38;17.42;;;8.63;;
26325;SDS011;14032;52.510;7.342;2024-01-30T13:50:05;15.27;;;9.10;;
26325;SDS011;14032;52.510;7.342;2024-01-30T13:52:31;14.65;;;9.10;;
26325;SDS011;14032;52.510;7.342;2024-01-30T13:54:57;14.05;;;8.60;;
26325;SDS011;14032;52.510;7.342;2024-01-30T13:57:22;18.55;;;8.25;;
26325;SDS011;14032;52.510;7.342;2024-01-30T13:59:48;16.67;;;8.30;;
26325;SDS011;14032;52.510;7.342;2024-01-30T14:02:14;16.05;;;8.05;;
26325;SDS011;14032;52.510;7.342;2024-01-30T14:04:39;14.40;;;8.07;;
26325;SDS011;14032;52.510;7.342;2024-01-30T14:07:05;14.65;;;8.10;;
26325;SDS011;14032;52.510;7.342;2024-01-30T14:09:31;14.23;;;8.10;;
26325;SDS011;14032;52.510;7.342;2024-01-30T14:11:57;14.75;;;8.15;;
26325;SDS011;14032;52.510;7.342;2024-01-30T14:14:23;9.88;;;7.20;;
26325;SDS011;14032;52.510;7.342;2024-01-30T14:16:49;11.98;;;7.70;;
26325;SDS011;14032;52.510;7.342;2024-01-30T14:19:15;12.40;;;7.20;;
26325;SDS011;14032;52.510;7.342;2024-01-30T14:21:41;17.80;;;7.53;;
26325;SDS011;14032;52.510;7.342;2024-01-30T14:24:07;14.85;;;7.10;;
26325;SDS011;14032;52.510;7.342;2024-01-30T14:26:32;14.38;;;7.22;;